createdAt,value
2017-09-21T00:00:37.652Z,22.87
2017-09-21T00:03:05.581Z,22.70
2017-09-21T00:05:31.910Z,24.50
2017-09-21T00:07:59.145Z,24.10
2017-09-21T00:10:29.117Z,21.60
2017-09-21T00:12:57.933Z,21.23
2017-09-21T00:15:25.794Z,22.00
2017-09-21T00:17:52.921Z,22.27
2017-09-21T00:20:20.012Z,22.33
2017-09-21T00:22:47.052Z,21.80
2017-09-21T00:25:14.110Z,23.00
2017-09-21T00:27:40.446Z,24.17
2017-09-21T00:30:07.491Z,23.67
2017-09-21T00:32:33.830Z,26.70
2017-09-21T00:35:01.022Z,25.93
2017-09-21T00:37:27.557Z,26.50
2017-09-21T00:39:53.895Z,28.00
2017-09-21T00:42:20.219Z,28.03
2017-09-21T00:44:47.280Z,29.83
2017-09-21T00:47:13.757Z,27.33
2017-09-21T00:49:40.738Z,28.80
2017-09-21T00:52:07.051Z,29.27
2017-09-21T00:54:35.157Z,28.50
2017-09-21T00:57:01.477Z,30.03
2017-09-21T00:59:27.825Z,26.90
2017-09-21T01:01:54.161Z,27.07
2017-09-21T01:04:21.217Z,29.20
2017-09-21T01:06:48.931Z,31.17
2017-09-21T01:09:15.291Z,33.10
2017-09-21T01:11:42.393Z,29.60
2017-09-21T01:14:08.716Z,29.60
2017-09-21T01:16:35.067Z,29.37
2017-09-21T01:19:01.366Z,30.00
2017-09-21T01:21:28.419Z,28.50
2017-09-21T01:23:54.754Z,27.10
2017-09-21T01:26:21.090Z,28.57
2017-09-21T01:28:48.195Z,26.60
2017-09-21T01:31:14.549Z,27.33
2017-09-21T01:33:41.734Z,26.83
2017-09-21T01:36:08.995Z,25.93
2017-09-21T01:38:36.160Z,24.00
2017-09-21T01:41:03.115Z,27.67
2017-09-21T01:43:30.221Z,25.97
2017-09-21T01:45:57.391Z,24.67
2017-09-21T01:48:31.753Z,24.50
2017-09-21T01:50:58.854Z,23.90
2017-09-21T01:53:25.579Z,28.03
2017-09-21T01:55:52.839Z,26.20
2017-09-21T01:58:19.192Z,23.03
2017-09-21T02:00:45.615Z,24.87
2017-09-21T02:03:12.762Z,25.73
2017-09-21T02:05:40.051Z,25.93
2017-09-21T02:08:07.328Z,24.40
2017-09-21T02:10:33.657Z,25.13
2017-09-21T02:12:59.988Z,25.00
2017-09-21T02:15:27.995Z,24.07
2017-09-21T02:17:56.249Z,23.80
2017-09-21T02:20:23.370Z,24.47
2017-09-21T02:22:50.020Z,23.27
2017-09-21T02:25:16.367Z,22.90
2017-09-21T02:27:43.701Z,24.80
2017-09-21T02:30:11.704Z,23.93
2017-09-21T02:32:38.038Z,26.77
2017-09-21T02:35:05.254Z,24.70
2017-09-21T02:37:33.094Z,25.93
2017-09-21T02:40:01.758Z,25.37
2017-09-21T02:42:28.090Z,28.67
2017-09-21T02:44:54.367Z,27.63
2017-09-21T02:47:21.440Z,25.30
2017-09-21T02:49:47.743Z,29.50
2017-09-21T02:52:14.778Z,29.60
2017-09-21T02:54:41.669Z,28.53
2017-09-21T02:57:08.702Z,26.70
2017-09-21T02:59:34.984Z,25.30
2017-09-21T03:02:01.301Z,26.93
2017-09-21T03:04:27.618Z,27.70
2017-09-21T03:06:53.907Z,26.60
2017-09-21T03:09:21.413Z,24.80
2017-09-21T03:11:48.676Z,23.73
2017-09-21T03:14:14.957Z,24.77
2017-09-21T03:16:41.886Z,26.33
2017-09-21T03:19:08.942Z,25.53
2017-09-21T03:21:35.278Z,26.90
2017-09-21T03:24:01.591Z,28.20
2017-09-21T03:26:28.623Z,26.93
2017-09-21T03:28:54.913Z,26.70
2017-09-21T03:31:21.220Z,25.17
2017-09-21T03:33:48.275Z,25.87
2017-09-21T03:36:14.567Z,25.10
2017-09-21T03:38:41.623Z,24.77
2017-09-21T03:41:07.912Z,24.30
2017-09-21T03:43:34.219Z,25.10
2017-09-21T03:46:00.496Z,25.03
2017-09-21T03:48:26.809Z,25.73
2017-09-21T03:50:54.185Z,24.07
2017-09-21T03:53:21.216Z,23.77
2017-09-21T03:55:47.526Z,25.23
2017-09-21T03:58:13.822Z,25.83
2017-09-21T04:00:40.130Z,25.27
2017-09-21T04:03:06.435Z,26.23
2017-09-21T04:05:32.730Z,25.80
2017-09-21T04:07:59.030Z,27.67
2017-09-21T04:10:26.066Z,26.90
2017-09-21T04:12:53.321Z,25.57
2017-09-21T04:15:19.649Z,23.23
2017-09-21T04:17:46.685Z,24.37
2017-09-21T04:20:13.747Z,25.13
2017-09-21T04:22:40.064Z,25.23
2017-09-21T04:25:07.122Z,26.27
2017-09-21T04:27:34.170Z,25.43
2017-09-21T04:30:02.198Z,25.73
2017-09-21T04:32:29.225Z,26.57
2017-09-21T04:34:56.567Z,25.57
2017-09-21T04:37:22.938Z,24.87
2017-09-21T04:39:50.903Z,25.03
2017-09-21T04:42:18.223Z,25.93
2017-09-21T04:44:45.262Z,26.90
2017-09-21T04:47:11.568Z,25.97
2017-09-21T04:49:38.602Z,23.90
2017-09-21T04:52:05.659Z,24.13
2017-09-21T04:54:32.723Z,25.13
2017-09-21T04:56:59.061Z,24.97
2017-09-21T04:59:25.367Z,25.07
2017-09-21T05:01:52.422Z,24.33
2017-09-21T05:04:19.721Z,24.07
2017-09-21T05:06:46.048Z,23.70
2017-09-21T05:09:12.398Z,24.00
2017-09-21T05:11:38.733Z,24.27
2017-09-21T05:14:05.055Z,24.00
2017-09-21T05:16:31.378Z,24.50
2017-09-21T05:18:58.548Z,24.23
2017-09-21T05:21:24.860Z,24.93
2017-09-21T05:23:51.182Z,24.73
2017-09-21T05:26:17.531Z,23.80
2017-09-21T05:28:44.622Z,23.80
2017-09-21T05:31:10.961Z,23.70
2017-09-21T05:33:37.258Z,24.13
2017-09-21T05:36:04.303Z,24.07
2017-09-21T05:38:31.420Z,22.70
2017-09-21T05:40:59.359Z,23.37
2017-09-21T05:43:27.211Z,21.27
2017-09-21T05:45:57.883Z,24.17
2017-09-21T05:48:24.210Z,24.93
2017-09-21T05:50:50.490Z,24.23
2017-09-21T05:53:17.582Z,24.80
2017-09-21T05:55:43.893Z,25.30
2017-09-21T05:58:10.906Z,23.20
2017-09-21T06:00:38.054Z,23.97
2017-09-21T06:03:05.104Z,25.03
2017-09-21T06:05:31.496Z,24.03
2017-09-21T06:07:57.798Z,22.07
2017-09-21T06:10:24.109Z,23.47
2017-09-21T06:12:50.441Z,22.63
2017-09-21T06:15:18.353Z,22.73
2017-09-21T06:17:44.678Z,23.20
2017-09-21T06:20:11.451Z,22.00
2017-09-21T06:22:37.766Z,23.80
2017-09-21T06:25:04.090Z,22.77
2017-09-21T06:27:31.304Z,21.77
2017-09-21T06:29:57.634Z,22.37
2017-09-21T06:32:23.992Z,22.37
2017-09-21T06:34:50.299Z,23.40
2017-09-21T06:37:17.343Z,22.73
2017-09-21T06:39:43.655Z,23.53
2017-09-21T06:42:11.585Z,21.83
2017-09-21T06:44:38.633Z,23.37
2017-09-21T06:47:05.332Z,22.73
2017-09-21T06:49:31.681Z,21.03
2017-09-21T06:51:58.026Z,20.90
2017-09-21T06:54:25.138Z,23.10
2017-09-21T06:56:51.461Z,21.10
2017-09-21T06:59:18.520Z,22.33
2017-09-21T07:01:45.083Z,23.73
2017-09-21T07:04:11.398Z,22.43
2017-09-21T07:06:37.716Z,22.13
2017-09-21T07:09:04.038Z,21.17
2017-09-21T07:11:30.369Z,24.93
2017-09-21T07:13:56.712Z,22.90
2017-09-21T07:16:23.095Z,24.13
2017-09-21T07:18:51.782Z,23.33
2017-09-21T07:21:18.067Z,24.80
2017-09-21T07:23:45.155Z,23.93
2017-09-21T07:26:12.226Z,24.50
2017-09-21T07:28:38.621Z,26.73
2017-09-21T07:31:04.954Z,26.00
2017-09-21T07:33:31.355Z,25.10
2017-09-21T07:35:57.674Z,26.10
2017-09-21T07:38:23.993Z,24.87
2017-09-21T07:40:50.350Z,25.93
2017-09-21T07:43:16.723Z,25.03
2017-09-21T07:45:43.806Z,26.37
2017-09-21T07:48:10.852Z,27.10
2017-09-21T07:50:37.206Z,25.20
2017-09-21T07:53:03.547Z,27.57
2017-09-21T07:55:29.904Z,28.10
2017-09-21T07:57:56.958Z,28.00
2017-09-21T08:00:23.272Z,28.10
2017-09-21T08:02:49.590Z,29.23
2017-09-21T08:05:15.907Z,30.77
2017-09-21T08:07:42.871Z,30.37
2017-09-21T08:10:09.928Z,28.60
2017-09-21T08:12:36.238Z,29.40
2017-09-21T08:15:02.795Z,32.53
2017-09-21T08:17:29.133Z,33.90
2017-09-21T08:19:55.426Z,36.33
2017-09-21T08:22:21.748Z,36.57
2017-09-21T08:24:48.058Z,35.60
2017-09-21T08:27:14.394Z,35.40
2017-09-21T08:29:40.703Z,34.73
2017-09-21T08:32:07.772Z,35.97
2017-09-21T08:34:34.078Z,37.23
2017-09-21T08:37:01.126Z,37.97
2017-09-21T08:39:28.186Z,35.00
2017-09-21T08:41:54.497Z,33.00
2017-09-21T08:44:21.613Z,34.13
2017-09-21T08:46:47.896Z,36.80
2017-09-21T08:49:14.202Z,36.70
2017-09-21T08:51:40.588Z,34.80
2017-09-21T08:54:07.908Z,36.47
2017-09-21T08:56:34.215Z,36.83
2017-09-21T08:59:01.278Z,35.50
2017-09-21T09:01:28.306Z,36.33
2017-09-21T09:03:55.354Z,36.17
2017-09-21T09:06:22.392Z,36.97
2017-09-21T09:08:49.434Z,39.70
2017-09-21T09:11:15.735Z,36.77
2017-09-21T09:13:42.064Z,37.27
2017-09-21T09:16:08.414Z,38.73
2017-09-21T09:18:34.742Z,35.60
2017-09-21T09:21:01.029Z,36.57
2017-09-21T09:23:27.371Z,37.03
2017-09-21T09:25:53.709Z,40.00
2017-09-21T09:28:20.025Z,38.77
2017-09-21T09:30:46.373Z,40.03
2017-09-21T09:33:12.675Z,40.50
2017-09-21T09:35:39.010Z,37.90
2017-09-21T09:38:05.302Z,40.07
2017-09-21T09:40:32.372Z,40.30
2017-09-21T09:42:59.460Z,39.47
2017-09-21T09:45:25.770Z,38.93
2017-09-21T09:47:52.059Z,39.73
2017-09-21T09:50:19.124Z,39.37
2017-09-21T09:52:46.181Z,37.40
2017-09-21T09:55:12.489Z,39.17
2017-09-21T09:57:38.789Z,36.77
2017-09-21T10:00:05.090Z,37.70
2017-09-21T10:02:31.421Z,35.80
2017-09-21T10:04:57.755Z,33.53
2017-09-21T10:07:24.037Z,33.80
2017-09-21T10:09:51.828Z,33.60
2017-09-21T10:12:18.136Z,33.23
2017-09-21T10:14:45.166Z,30.53
2017-09-21T10:17:11.500Z,30.50
2017-09-21T10:19:37.778Z,32.60
2017-09-21T10:22:04.101Z,31.77
2017-09-21T10:24:30.426Z,28.37
2017-09-21T10:26:56.764Z,29.00
2017-09-21T10:29:23.077Z,32.60
2017-09-21T10:31:49.413Z,31.23
2017-09-21T10:34:16.467Z,31.77
2017-09-21T10:36:42.747Z,33.07
2017-09-21T10:39:09.038Z,32.60
2017-09-21T10:41:35.375Z,31.27
2017-09-21T10:44:01.728Z,30.83
2017-09-21T10:46:28.046Z,32.77
2017-09-21T10:48:54.345Z,32.10
2017-09-21T10:51:20.644Z,31.00
2017-09-21T10:53:46.977Z,31.70
2017-09-21T10:56:13.275Z,30.77
2017-09-21T10:58:39.598Z,30.90
2017-09-21T11:01:05.934Z,33.00
2017-09-21T11:03:32.256Z,29.53
2017-09-21T11:05:58.561Z,31.93
2017-09-21T11:08:25.001Z,27.90
2017-09-21T11:10:51.327Z,27.00
2017-09-21T11:13:17.641Z,25.17
2017-09-21T11:15:43.946Z,27.67
2017-09-21T11:18:11.738Z,25.60
2017-09-21T11:20:38.759Z,28.50
2017-09-21T11:23:06.775Z,25.10
2017-09-21T11:25:33.089Z,23.80
2017-09-21T11:27:59.419Z,25.20
2017-09-21T11:30:25.705Z,24.27
2017-09-21T11:32:52.778Z,28.40
2017-09-21T11:35:19.829Z,27.40
2017-09-21T11:37:46.933Z,26.20
2017-09-21T11:40:14.716Z,27.90
2017-09-21T11:42:41.010Z,28.20
2017-09-21T11:45:07.353Z,25.93
2017-09-21T11:47:33.671Z,26.27
2017-09-21T11:49:59.982Z,25.40
2017-09-21T11:52:26.286Z,30.10
2017-09-21T11:54:54.100Z,29.90
2017-09-21T11:57:20.403Z,30.27
2017-09-21T11:59:46.748Z,28.63
2017-09-21T12:02:13.053Z,28.07
2017-09-21T12:04:39.373Z,28.60
2017-09-21T12:07:06.400Z,26.90
2017-09-21T12:09:32.717Z,26.77
2017-09-21T12:12:00.499Z,25.07
2017-09-21T12:14:27.558Z,23.90
2017-09-21T12:16:54.618Z,25.70
2017-09-21T12:19:20.946Z,23.53
2017-09-21T12:21:47.302Z,23.03
2017-09-21T12:24:13.614Z,22.50
2017-09-21T12:26:39.926Z,20.40
2017-09-21T12:29:06.238Z,18.70
2017-09-21T12:31:33.313Z,16.33
2017-09-21T12:34:00.362Z,17.33
2017-09-21T12:36:26.654Z,13.97
2017-09-21T12:38:52.960Z,15.77
2017-09-21T12:41:19.308Z,16.57
2017-09-21T12:43:45.742Z,16.10
2017-09-21T12:46:13.547Z,17.03
2017-09-21T12:48:40.580Z,18.67
2017-09-21T12:51:07.646Z,19.07
2017-09-21T12:53:33.934Z,17.50
2017-09-21T12:56:00.251Z,16.30
2017-09-21T12:58:26.532Z,17.17
2017-09-21T13:00:54.559Z,17.57
2017-09-21T13:03:20.885Z,17.60
2017-09-21T13:05:47.188Z,15.80
2017-09-21T13:08:13.498Z,15.63
2017-09-21T13:10:39.814Z,16.40
2017-09-21T13:13:06.869Z,14.90
2017-09-21T13:15:33.907Z,18.00
2017-09-21T13:18:00.967Z,18.00
2017-09-21T13:20:27.253Z,17.20
2017-09-21T13:22:55.049Z,16.13
2017-09-21T13:25:21.360Z,15.87
2017-09-21T13:27:48.409Z,16.83
2017-09-21T13:30:16.186Z,17.33
2017-09-21T13:32:43.252Z,16.43
2017-09-21T13:35:09.550Z,18.10
2017-09-21T13:37:35.865Z,16.70
2017-09-21T13:40:02.193Z,17.07
2017-09-21T13:42:28.474Z,19.40
2017-09-21T13:44:54.814Z,18.67
2017-09-21T13:47:21.132Z,20.17
2017-09-21T13:49:47.484Z,20.10
2017-09-21T13:52:13.770Z,19.80
2017-09-21T13:54:40.823Z,20.30
2017-09-21T13:57:07.878Z,19.90
2017-09-21T13:59:34.222Z,19.03
2017-09-21T14:02:00.492Z,18.67
2017-09-21T14:04:27.548Z,18.83
2017-09-21T14:06:53.841Z,16.57
2017-09-21T14:09:20.141Z,17.47
2017-09-21T14:11:47.164Z,21.60
2017-09-21T14:14:13.507Z,19.80
2017-09-21T14:16:40.537Z,17.23
2017-09-21T14:19:06.841Z,22.33
2017-09-21T14:21:33.110Z,22.03
2017-09-21T14:24:00.179Z,23.40
2017-09-21T14:26:27.236Z,22.10
2017-09-21T14:28:53.518Z,20.87
2017-09-21T14:31:19.823Z,20.13
2017-09-21T14:33:46.151Z,19.37
2017-09-21T14:36:12.464Z,20.27
2017-09-21T14:38:38.810Z,20.47
2017-09-21T14:41:05.143Z,22.50
2017-09-21T14:43:31.479Z,22.83
2017-09-21T14:45:57.794Z,21.17
2017-09-21T14:48:24.126Z,19.87
2017-09-21T14:50:50.417Z,18.60
2017-09-21T14:53:17.446Z,18.40
2017-09-21T14:55:44.500Z,19.77
2017-09-21T14:58:11.673Z,17.70
2017-09-21T15:00:38.025Z,18.60
2017-09-21T15:03:04.323Z,20.10
2017-09-21T15:05:30.621Z,17.83
2017-09-21T15:07:57.693Z,15.63
2017-09-21T15:10:24.730Z,15.10
2017-09-21T15:12:51.789Z,17.37
2017-09-21T15:15:18.844Z,19.77
2017-09-21T15:17:45.176Z,18.63
2017-09-21T15:20:11.464Z,18.60
2017-09-21T15:22:39.261Z,17.53
2017-09-21T15:25:06.324Z,18.50
2017-09-21T15:27:32.664Z,17.77
2017-09-21T15:29:58.981Z,15.83
2017-09-21T15:32:25.306Z,15.43
2017-09-21T15:34:52.353Z,14.87
2017-09-21T15:37:18.649Z,18.30
2017-09-21T15:39:44.991Z,17.93
2017-09-21T15:42:12.051Z,17.90
2017-09-21T15:44:39.097Z,19.57
2017-09-21T15:47:06.132Z,22.30
2017-09-21T15:49:32.422Z,19.70
2017-09-21T15:51:58.721Z,20.27
2017-09-21T15:54:25.009Z,20.80
2017-09-21T15:56:51.293Z,21.30
2017-09-21T15:59:17.592Z,20.07
2017-09-21T16:01:44.638Z,21.03
2017-09-21T16:04:11.665Z,20.53
2017-09-21T16:06:37.964Z,17.07
2017-09-21T16:09:04.277Z,16.33
2017-09-21T16:11:30.586Z,15.00
2017-09-21T16:13:56.891Z,15.83
2017-09-21T16:16:23.187Z,15.53
2017-09-21T16:18:50.382Z,16.00
2017-09-21T16:21:16.682Z,14.60
2017-09-21T16:23:43.047Z,13.50
2017-09-21T16:26:09.395Z,13.27
2017-09-21T16:28:36.032Z,12.83
2017-09-21T16:31:03.264Z,12.87
2017-09-21T16:33:30.289Z,11.70
2017-09-21T16:35:56.603Z,12.97
2017-09-21T16:38:22.900Z,11.40
2017-09-21T16:40:49.258Z,12.53
2017-09-21T16:43:15.580Z,15.03
2017-09-21T16:45:41.860Z,13.97
2017-09-21T16:48:08.913Z,14.73
2017-09-21T16:50:35.930Z,14.87
2017-09-21T16:53:02.238Z,14.27
2017-09-21T16:55:28.519Z,14.73
2017-09-21T16:57:55.548Z,15.40
2017-09-21T17:00:22.626Z,15.97
2017-09-21T17:02:48.954Z,15.37
2017-09-21T17:05:15.283Z,16.63
2017-09-21T17:07:42.726Z,17.33
2017-09-21T17:10:09.742Z,16.30
2017-09-21T17:12:37.535Z,15.77
2017-09-21T17:15:03.876Z,16.77
2017-09-21T17:17:30.983Z,14.60
2017-09-21T17:19:58.049Z,16.70
2017-09-21T17:22:25.807Z,16.13
2017-09-21T17:24:52.093Z,16.30
2017-09-21T17:27:18.471Z,14.60
2017-09-21T17:29:45.545Z,13.80
2017-09-21T17:32:11.842Z,14.90
2017-09-21T17:34:38.148Z,15.77
2017-09-21T17:37:04.434Z,15.50
2017-09-21T17:39:31.547Z,15.97
2017-09-21T17:41:57.829Z,15.97
2017-09-21T17:44:24.122Z,15.37
2017-09-21T17:46:51.159Z,15.70
2017-09-21T17:49:17.456Z,15.70
2017-09-21T17:51:43.720Z,15.80
2017-09-21T17:54:10.073Z,15.13
2017-09-21T17:56:36.408Z,14.40
2017-09-21T17:59:02.699Z,13.30
2017-09-21T18:01:28.975Z,14.23
2017-09-21T18:03:55.313Z,13.40
2017-09-21T18:06:21.581Z,13.17
2017-09-21T18:08:47.868Z,12.83
2017-09-21T18:11:14.167Z,12.77
2017-09-21T18:13:41.248Z,12.27
2017-09-21T18:16:07.557Z,14.50
2017-09-21T18:18:34.087Z,12.87
2017-09-21T18:21:01.131Z,13.10
2017-09-21T18:23:28.319Z,13.10
2017-09-21T18:25:54.615Z,12.73
2017-09-21T18:28:21.658Z,12.20
2017-09-21T18:30:48.705Z,12.43
2017-09-21T18:33:15.727Z,12.50
2017-09-21T18:35:42.063Z,12.60
2017-09-21T18:38:08.534Z,12.97
2017-09-21T18:40:34.853Z,12.60
2017-09-21T18:43:01.184Z,13.10
2017-09-21T18:45:28.224Z,12.70
2017-09-21T18:47:56.205Z,11.40
2017-09-21T18:50:22.628Z,11.90
2017-09-21T18:52:49.725Z,12.47
2017-09-21T18:55:16.927Z,12.30
2017-09-21T18:57:43.976Z,11.50
2017-09-21T19:00:10.983Z,11.43
2017-09-21T19:02:37.288Z,11.53
2017-09-21T19:05:04.148Z,12.50
2017-09-21T19:07:30.433Z,13.50
2017-09-21T19:09:57.455Z,13.37
2017-09-21T19:12:24.509Z,13.40
2017-09-21T19:14:51.521Z,12.20
2017-09-21T19:17:17.874Z,13.10
2017-09-21T19:19:45.000Z,12.43
2017-09-21T19:22:11.373Z,11.60
2017-09-21T19:24:38.402Z,11.40
2017-09-21T19:27:04.716Z,11.93
2017-09-21T19:29:31.018Z,11.73
2017-09-21T19:31:57.314Z,12.60
2017-09-21T19:34:24.540Z,12.43
2017-09-21T19:36:50.897Z,14.00
2017-09-21T19:39:18.003Z,14.27
2017-09-21T19:41:44.341Z,14.53
2017-09-21T19:44:10.617Z,15.43
2017-09-21T19:46:36.887Z,15.27
2017-09-21T19:49:04.004Z,15.10
2017-09-21T19:51:30.338Z,15.20
2017-09-21T19:53:56.770Z,14.13
2017-09-21T19:56:23.135Z,14.63
2017-09-21T19:58:49.452Z,13.27
2017-09-21T20:01:15.744Z,14.53
2017-09-21T20:03:42.180Z,14.67
2017-09-21T20:06:08.601Z,14.80
2017-09-21T20:08:35.686Z,15.97
2017-09-21T20:11:02.710Z,18.80
2017-09-21T20:13:29.017Z,18.87
2017-09-21T20:15:56.033Z,16.70
2017-09-21T20:18:22.343Z,18.40
2017-09-21T20:20:48.610Z,17.97
2017-09-21T20:23:14.951Z,18.00
2017-09-21T20:25:42.026Z,17.80
2017-09-21T20:28:08.348Z,17.97
2017-09-21T20:30:35.363Z,18.10
2017-09-21T20:33:02.404Z,18.70
2017-09-21T20:35:28.718Z,17.83
2017-09-21T20:37:54.980Z,18.10
2017-09-21T20:40:22.019Z,17.50
2017-09-21T20:42:49.052Z,18.90
2017-09-21T20:45:15.382Z,18.87
2017-09-21T20:47:41.672Z,18.77
2017-09-21T20:50:07.960Z,19.27
2017-09-21T20:52:35.059Z,19.50
2017-09-21T20:55:01.613Z,19.33
2017-09-21T20:57:28.041Z,18.93
2017-09-21T20:59:54.348Z,21.27
2017-09-21T21:02:20.619Z,20.40
2017-09-21T21:04:46.910Z,20.90
2017-09-21T21:07:13.183Z,20.80
2017-09-21T21:09:39.484Z,20.37
2017-09-21T21:12:06.661Z,22.50
2017-09-21T21:14:32.983Z,21.97
2017-09-21T21:16:59.258Z,21.67
2017-09-21T21:19:25.544Z,23.40
2017-09-21T21:21:51.851Z,22.07
2017-09-21T21:24:18.159Z,21.90
2017-09-21T21:26:44.463Z,19.87
2017-09-21T21:29:11.478Z,20.43
2017-09-21T21:31:37.810Z,20.30
2017-09-21T21:34:05.577Z,21.80
2017-09-21T21:36:31.874Z,21.33
2017-09-21T21:38:58.218Z,20.63
2017-09-21T21:41:24.501Z,20.80
2017-09-21T21:43:51.513Z,22.27
2017-09-21T21:46:18.185Z,20.63
2017-09-21T21:48:44.475Z,20.47
2017-09-21T21:51:10.765Z,19.47
2017-09-21T21:53:37.049Z,21.13
2017-09-21T21:56:03.394Z,21.60
2017-09-21T21:58:30.468Z,20.13
2017-09-21T22:00:56.771Z,19.33
2017-09-21T22:03:23.081Z,18.63
2017-09-21T22:05:49.387Z,20.43
2017-09-21T22:08:16.685Z,19.67
2017-09-21T22:10:43.714Z,19.33
2017-09-21T22:13:10.757Z,18.10
2017-09-21T22:15:37.019Z,19.70
2017-09-21T22:18:03.300Z,19.63
2017-09-21T22:20:29.608Z,21.13
2017-09-21T22:22:55.911Z,20.27
2017-09-21T22:25:22.198Z,22.10
2017-09-21T22:27:48.476Z,19.87
2017-09-21T22:30:14.750Z,20.50
2017-09-21T22:32:41.047Z,18.67
2017-09-21T22:35:07.324Z,18.50
2017-09-21T22:37:33.618Z,18.57
2017-09-21T22:39:59.886Z,18.40
2017-09-21T22:42:26.189Z,17.10
2017-09-21T22:44:52.481Z,17.53
2017-09-21T22:47:18.759Z,17.60
2017-09-21T22:49:45.045Z,17.30
2017-09-21T22:52:11.341Z,17.60
2017-09-21T22:54:38.397Z,18.87
2017-09-21T22:57:05.426Z,17.83
2017-09-21T22:59:32.457Z,19.07
2017-09-21T23:02:00.522Z,20.07
2017-09-21T23:04:27.143Z,18.47
2017-09-21T23:06:53.560Z,17.83
2017-09-21T23:09:19.867Z,18.90
2017-09-21T23:11:46.158Z,17.93
2017-09-21T23:14:13.222Z,16.67
2017-09-21T23:16:40.250Z,17.17
2017-09-21T23:19:06.529Z,17.93
2017-09-21T23:21:32.825Z,16.63
2017-09-21T23:23:59.876Z,17.80
2017-09-21T23:26:26.915Z,17.40
2017-09-21T23:28:53.193Z,18.13
2017-09-21T23:31:19.507Z,17.23
2017-09-21T23:33:45.790Z,17.80
2017-09-21T23:36:12.131Z,17.27
2017-09-21T23:38:39.167Z,18.67
2017-09-21T23:41:06.206Z,17.73
2017-09-21T23:43:32.501Z,18.40
2017-09-21T23:45:58.798Z,18.63
2017-09-21T23:48:25.809Z,21.53
2017-09-21T23:50:52.110Z,20.43
2017-09-21T23:53:18.414Z,18.47
2017-09-21T23:55:46.264Z,19.07
2017-09-21T23:58:13.299Z,18.77
